PWSweather.com
Personal Weather Stations
Station Observations
RTINEZ
TerrassaES 08226

TerrassaES 08226

Lat: 41.5762194, Lon: 2.028993700000001

Elevation: 367

Station Type: Watson W8681

www.rtinez.cat

High Low Average
Temperature 75.7°F24.3°C 61.3°F16.3°C 66.5°F19.2°C
Dew Point 66.1°F18.9°C 57.2°F14.0°C 62.1°F16.7°C
Winds 13.0 mph 20.9 kmh Calm Calm 4.0 mph SW6.4 kmh SW
Wind Gusts 19.0 mph30.6 kmh 1.6 mph2.6 kmh 9.0 mph14.5 kmh
Humidity 95% 67% 86%
Pressure 30.12 in1020.0 mb 28.77 in974.3 mb -
Precipitation 0.00 in0.0 mm - -
Hour Temp Dew Point Humidity Winds Wind Gusts Pressure Precip Precip Rate Daily Precip Total
12:00 AM 66.9°F19.4°C 64.2°F17.9°C 91% 6.0 mph W9.7 kmh W 9.2 mph14.8 kmh 30.02 in1016.6 mb 0.00 in0.0 mm 0.00 in0.0 mm 0.00 in0.0 mm
12:15 AM 66.7°F19.3°C 64.4°F18.0°C 92% 3.8 mph NW6.1 kmh NW 9.2 mph14.8 kmh 30.02 in1016.6 mb 0.00 in0.0 mm 0.00 in0.0 mm 0.00 in0.0 mm
12:30 AM 66.7°F19.3°C 64.4°F18.0°C 92% 5.4 mph NW8.7 kmh NW 9.2 mph14.8 kmh 30.04 in1017.3 mb 0.00 in0.0 mm 0.00 in0.0 mm 0.00 in0.0 mm
12:45 AM 66.7°F19.3°C 64.7°F18.2°C 93% 6.9 mph WNW11.1 kmh WNW 9.8 mph15.8 kmh 28.81 in975.6 mb 0.00 in0.0 mm 0.00 in0.0 mm 0.00 in0.0 mm
01:00 AM 66.4°F19.1°C 64.3°F17.9°C 93% 4.5 mph W7.2 kmh W 9.2 mph14.8 kmh 28.80 in975.3 mb 0.00 in0.0 mm 0.00 in0.0 mm 0.00 in0.0 mm
01:15 AM 66.2°F19.0°C 63.8°F17.7°C 92% 5.4 mph W8.7 kmh W 7.6 mph12.2 kmh 28.80 in975.3 mb 0.00 in0.0 mm 0.00 in0.0 mm 0.00 in0.0 mm
01:30 AM 66.2°F19.0°C 63.8°F17.7°C 92% 4.5 mph NW7.2 kmh NW 7.6 mph12.2 kmh 28.81 in975.6 mb 0.00 in0.0 mm 0.00 in0.0 mm 0.00 in0.0 mm
01:45 AM 66.2°F19.0°C 63.5°F17.5°C 91% 3.8 mph WNW6.1 kmh WNW 6.9 mph11.1 kmh 28.79 in974.9 mb 0.00 in0.0 mm 0.00 in0.0 mm 0.00 in0.0 mm
02:00 AM 66.2°F19.0°C 62.9°F17.2°C 89% 3.1 mph W5.0 kmh W 6.9 mph11.1 kmh 28.80 in975.3 mb 0.00 in0.0 mm 0.00 in0.0 mm 0.00 in0.0 mm
02:15 AM 66.2°F19.0°C 62.2°F16.8°C 87% 4.5 mph NW7.2 kmh NW 7.6 mph12.2 kmh 28.79 in974.9 mb 0.00 in0.0 mm 0.00 in0.0 mm 0.00 in0.0 mm
02:30 AM 66.2°F19.0°C 61.9°F16.6°C 86% 3.1 mph W5.0 kmh W 8.3 mph13.4 kmh 28.79 in974.9 mb 0.00 in0.0 mm 0.00 in0.0 mm 0.00 in0.0 mm
02:45 AM 66.2°F19.0°C 61.9°F16.6°C 86% 3.1 mph W5.0 kmh W 6.0 mph9.7 kmh 28.79 in974.9 mb 0.00 in0.0 mm 0.00 in0.0 mm 0.00 in0.0 mm
03:00 AM 66.0°F18.9°C 62.1°F16.7°C 87% 3.1 mph W5.0 kmh W 5.4 mph8.7 kmh 28.78 in974.6 mb 0.00 in0.0 mm 0.00 in0.0 mm 0.00 in0.0 mm
03:15 AM 65.8°F18.8°C 61.6°F16.4°C 86% 3.1 mph WNW5.0 kmh WNW 4.5 mph7.2 kmh 28.78 in974.6 mb 0.00 in0.0 mm 0.00 in0.0 mm 0.00 in0.0 mm
03:30 AM 66.0°F18.9°C 61.7°F16.5°C 86% 3.1 mph WNW5.0 kmh WNW 6.0 mph9.7 kmh 28.78 in974.6 mb 0.00 in0.0 mm 0.00 in0.0 mm 0.00 in0.0 mm
03:45 AM 65.8°F18.8°C 61.6°F16.4°C 86% 2.2 mph WNW3.5 kmh WNW 3.8 mph6.1 kmh 30.01 in1016.3 mb 0.00 in0.0 mm 0.00 in0.0 mm 0.00 in0.0 mm
04:00 AM 65.5°F18.6°C 60.9°F16.1°C 85% 1.6 mph WNW2.6 kmh WNW 3.8 mph6.1 kmh 28.78 in974.6 mb 0.00 in0.0 mm 0.00 in0.0 mm 0.00 in0.0 mm
04:15 AM 65.3°F18.5°C 60.7°F15.9°C 85% 1.6 mph WSW2.6 kmh WSW 3.1 mph5.0 kmh 28.78 in974.6 mb 0.00 in0.0 mm 0.00 in0.0 mm 0.00 in0.0 mm
04:30 AM 64.8°F18.2°C 60.2°F15.7°C 85% 1.6 mph WNW2.6 kmh WNW 3.8 mph6.1 kmh 28.78 in974.6 mb 0.00 in0.0 mm 0.00 in0.0 mm 0.00 in0.0 mm
04:45 AM 64.8°F18.2°C 60.5°F15.8°C 86% 4.5 mph NW7.2 kmh NW 5.4 mph8.7 kmh 28.78 in974.6 mb 0.00 in0.0 mm 0.00 in0.0 mm 0.00 in0.0 mm
05:00 AM 65.1°F18.4°C 61.2°F16.2°C 87% 3.1 mph WNW5.0 kmh WNW 5.4 mph8.7 kmh 30.01 in1016.3 mb 0.00 in0.0 mm 0.00 in0.0 mm 0.00 in0.0 mm
05:15 AM 65.5°F18.6°C 61.5°F16.4°C 87% 3.8 mph WNW6.1 kmh WNW 5.4 mph8.7 kmh 30.01 in1016.3 mb 0.00 in0.0 mm 0.00 in0.0 mm 0.00 in0.0 mm
05:30 AM 65.3°F18.5°C 61.0°F16.1°C 86% 3.8 mph W6.1 kmh W 6.0 mph9.7 kmh 30.00 in1015.9 mb 0.00 in0.0 mm 0.00 in0.0 mm 0.00 in0.0 mm
05:45 AM 64.8°F18.2°C 60.5°F15.8°C 86% 2.2 mph WNW3.5 kmh WNW 6.0 mph9.7 kmh 28.78 in974.6 mb 0.00 in0.0 mm 0.00 in0.0 mm 0.00 in0.0 mm
06:00 AM 64.8°F18.2°C 60.8°F16.0°C 87% 3.8 mph WNW6.1 kmh WNW 5.4 mph8.7 kmh 28.78 in974.6 mb 0.00 in0.0 mm 0.00 in0.0 mm 0.00 in0.0 mm
06:15 AM 64.9°F18.3°C 61.3°F16.3°C 88% 3.8 mph WNW6.1 kmh WNW 6.0 mph9.7 kmh 28.78 in974.6 mb 0.00 in0.0 mm 0.00 in0.0 mm 0.00 in0.0 mm
06:30 AM 65.5°F18.6°C 61.9°F16.6°C 88% 5.4 mph NW8.7 kmh NW 9.2 mph14.8 kmh 28.78 in974.6 mb 0.00 in0.0 mm 0.00 in0.0 mm 0.00 in0.0 mm
06:45 AM 65.7°F18.7°C 61.7°F16.5°C 87% 5.4 mph W8.7 kmh W 8.3 mph13.4 kmh 28.78 in974.6 mb 0.00 in0.0 mm 0.00 in0.0 mm 0.00 in0.0 mm
07:00 AM 66.0°F18.9°C 62.1°F16.7°C 87% 5.4 mph WNW8.7 kmh WNW 6.9 mph11.1 kmh 30.00 in1015.9 mb 0.00 in0.0 mm 0.00 in0.0 mm 0.00 in0.0 mm
07:15 AM 66.2°F19.0°C 61.6°F16.4°C 85% 4.5 mph NW7.2 kmh NW 7.6 mph12.2 kmh 28.77 in974.3 mb 0.00 in0.0 mm 0.00 in0.0 mm 0.00 in0.0 mm
07:30 AM 66.2°F19.0°C 61.6°F16.4°C 85% 6.0 mph WNW9.7 kmh WNW 9.2 mph14.8 kmh 28.78 in974.6 mb 0.00 in0.0 mm 0.00 in0.0 mm 0.00 in0.0 mm
07:45 AM 66.4°F19.1°C 62.1°F16.7°C 86% 6.0 mph NW9.7 kmh NW 9.2 mph14.8 kmh 28.79 in974.9 mb 0.00 in0.0 mm 0.00 in0.0 mm 0.00 in0.0 mm
08:00 AM 66.6°F19.2°C 62.6°F17.0°C 87% 6.0 mph W9.7 kmh W 13.0 mph20.9 kmh 28.79 in974.9 mb 0.00 in0.0 mm 0.00 in0.0 mm 0.00 in0.0 mm
08:15 AM 66.2°F19.0°C 63.2°F17.3°C 90% 4.5 mph W7.2 kmh W 9.2 mph14.8 kmh 28.80 in975.3 mb 0.00 in0.0 mm 0.00 in0.0 mm 0.00 in0.0 mm
08:30 AM 66.0°F18.9°C 64.0°F17.8°C 93% 3.8 mph WNW6.1 kmh WNW 6.9 mph11.1 kmh 30.02 in1016.6 mb 0.00 in0.0 mm 0.00 in0.0 mm 0.00 in0.0 mm
08:45 AM 66.0°F18.9°C 64.0°F17.8°C 93% 3.1 mph W5.0 kmh W 9.8 mph15.8 kmh 28.80 in975.3 mb 0.00 in0.0 mm 0.00 in0.0 mm 0.00 in0.0 mm
09:00 AM 66.2°F19.0°C 64.1°F17.8°C 93% 5.4 mph W8.7 kmh W 9.2 mph14.8 kmh 30.02 in1016.6 mb 0.00 in0.0 mm 0.00 in0.0 mm 0.00 in0.0 mm
09:15 AM 66.2°F19.0°C 64.4°F18.0°C 94% 3.8 mph W6.1 kmh W 9.2 mph14.8 kmh 30.03 in1016.9 mb 0.00 in0.0 mm 0.00 in0.0 mm 0.00 in0.0 mm
09:30 AM 66.2°F19.0°C 64.4°F18.0°C 94% 7.6 mph W12.2 kmh W 12.1 mph19.5 kmh 28.81 in975.6 mb 0.00 in0.0 mm 0.00 in0.0 mm 0.00 in0.0 mm
09:45 AM 66.0°F18.9°C 64.6°F18.1°C 95% 9.2 mph W14.8 kmh W 11.4 mph18.3 kmh 28.82 in976.0 mb 0.00 in0.0 mm 0.00 in0.0 mm 0.00 in0.0 mm
10:00 AM 66.2°F19.0°C 64.4°F18.0°C 94% 3.1 mph W5.0 kmh W 11.4 mph18.3 kmh 28.82 in976.0 mb 0.00 in0.0 mm 0.00 in0.0 mm 0.00 in0.0 mm
10:15 AM 67.3°F19.6°C 65.2°F18.4°C 93% 3.8 mph W6.1 kmh W 9.2 mph14.8 kmh 30.04 in1017.3 mb 0.00 in0.0 mm 0.00 in0.0 mm 0.00 in0.0 mm
10:30 AM 69.1°F20.6°C 66.1°F18.9°C 90% 5.4 mph W8.7 kmh W 8.3 mph13.4 kmh 30.04 in1017.3 mb 0.00 in0.0 mm 0.00 in0.0 mm 0.00 in0.0 mm
10:45 AM 69.3°F20.7°C 64.6°F18.1°C 85% 4.5 mph W7.2 kmh W 9.8 mph15.8 kmh 30.03 in1016.9 mb 0.00 in0.0 mm 0.00 in0.0 mm 0.00 in0.0 mm
11:00 AM 68.9°F20.5°C 63.9°F17.7°C 84% 6.0 mph NW9.7 kmh NW 12.1 mph19.5 kmh 30.03 in1016.9 mb 0.00 in0.0 mm 0.00 in0.0 mm 0.00 in0.0 mm
11:15 AM 69.4°F20.8°C 64.4°F18.0°C 84% 9.2 mph NW14.8 kmh NW 13.0 mph20.9 kmh 30.03 in1016.9 mb 0.00 in0.0 mm 0.00 in0.0 mm 0.00 in0.0 mm
11:30 AM 69.1°F20.6°C 63.7°F17.6°C 83% 7.6 mph WNW12.2 kmh WNW 13.6 mph21.9 kmh 30.04 in1017.3 mb 0.00 in0.0 mm 0.00 in0.0 mm 0.00 in0.0 mm
11:45 AM 69.3°F20.7°C 63.9°F17.7°C 83% 6.0 mph W9.7 kmh W 12.1 mph19.5 kmh 28.81 in975.6 mb 0.00 in0.0 mm 0.00 in0.0 mm 0.00 in0.0 mm
12:00 PM 70.0°F21.1°C 63.9°F17.7°C 81% 6.9 mph WSW11.1 kmh WSW 14.5 mph23.3 kmh 28.81 in975.6 mb 0.00 in0.0 mm 0.00 in0.0 mm 0.00 in0.0 mm
12:15 PM 69.6°F20.9°C 64.3°F17.9°C 83% 9.2 mph NW14.8 kmh NW 13.6 mph21.9 kmh 28.81 in975.6 mb 0.00 in0.0 mm 0.00 in0.0 mm 0.00 in0.0 mm
12:30 PM 69.4°F20.8°C 64.4°F18.0°C 84% 4.5 mph W7.2 kmh W 11.4 mph18.3 kmh 30.04 in1017.3 mb 0.00 in0.0 mm 0.00 in0.0 mm 0.00 in0.0 mm
12:45 PM 69.8°F21.0°C 64.4°F18.0°C 83% 5.4 mph WNW8.7 kmh WNW 10.7 mph17.2 kmh 30.02 in1016.6 mb 0.00 in0.0 mm 0.00 in0.0 mm 0.00 in0.0 mm
01:00 PM 70.2°F21.2°C 64.1°F17.8°C 81% 9.2 mph W14.8 kmh W 12.1 mph19.5 kmh 28.79 in974.9 mb 0.00 in0.0 mm 0.00 in0.0 mm 0.00 in0.0 mm
01:15 PM 70.0°F21.1°C 63.6°F17.6°C 80% 9.2 mph W14.8 kmh W 11.4 mph18.3 kmh 30.01 in1016.3 mb 0.00 in0.0 mm 0.00 in0.0 mm 0.00 in0.0 mm
01:30 PM 70.2°F21.2°C 63.7°F17.6°C 80% 8.3 mph W13.4 kmh W 11.4 mph18.3 kmh 30.02 in1016.6 mb 0.00 in0.0 mm 0.00 in0.0 mm 0.00 in0.0 mm
01:45 PM 70.7°F21.5°C 64.3°F17.9°C 80% 6.0 mph WSW9.7 kmh WSW 12.1 mph19.5 kmh 28.79 in974.9 mb 0.00 in0.0 mm 0.00 in0.0 mm 0.00 in0.0 mm
02:00 PM 71.1°F21.7°C 63.9°F17.7°C 78% 1.6 mph WSW2.6 kmh WSW 10.7 mph17.2 kmh 30.02 in1016.6 mb 0.00 in0.0 mm 0.00 in0.0 mm 0.00 in0.0 mm
02:15 PM 72.1°F22.3°C 63.4°F17.4°C 74% 4.5 mph W7.2 kmh W 9.2 mph14.8 kmh 28.79 in974.9 mb 0.00 in0.0 mm 0.00 in0.0 mm 0.00 in0.0 mm
02:30 PM 72.3°F22.4°C 63.6°F17.6°C 74% 4.5 mph WSW7.2 kmh WSW 7.6 mph12.2 kmh 30.02 in1016.6 mb 0.00 in0.0 mm 0.00 in0.0 mm 0.00 in0.0 mm
02:45 PM 72.3°F22.4°C 63.2°F17.3°C 73% 2.2 mph WSW3.5 kmh WSW 7.6 mph12.2 kmh 28.80 in975.3 mb 0.00 in0.0 mm 0.00 in0.0 mm 0.00 in0.0 mm
03:00 PM 71.6°F22.0°C 63.3°F17.4°C 75% 4.5 mph S7.2 kmh S 9.2 mph14.8 kmh 28.79 in974.9 mb 0.00 in0.0 mm 0.00 in0.0 mm 0.00 in0.0 mm
03:15 PM 72.7°F22.6°C 63.6°F17.6°C 73% 4.5 mph SE7.2 kmh SE 7.6 mph12.2 kmh 30.01 in1016.3 mb 0.00 in0.0 mm 0.00 in0.0 mm 0.00 in0.0 mm
03:30 PM 75.7°F24.3°C 64.5°F18.1°C 68% 2.2 mph S3.5 kmh S 6.0 mph9.7 kmh 30.02 in1016.6 mb 0.00 in0.0 mm 0.00 in0.0 mm 0.00 in0.0 mm
03:45 PM 75.6°F24.2°C 63.9°F17.7°C 67% 0.7 mph SSW1.1 kmh SSW 7.6 mph12.2 kmh 30.02 in1016.6 mb 0.00 in0.0 mm 0.00 in0.0 mm 0.00 in0.0 mm
04:00 PM 73.4°F23.0°C 63.5°F17.5°C 71% 1.6 mph SSE2.6 kmh SSE 6.9 mph11.1 kmh 30.01 in1016.3 mb 0.00 in0.0 mm 0.00 in0.0 mm 0.00 in0.0 mm
04:15 PM 72.0°F22.2°C 64.0°F17.8°C 76% 5.4 mph SE8.7 kmh SE 9.8 mph15.8 kmh 30.01 in1016.3 mb 0.00 in0.0 mm 0.00 in0.0 mm 0.00 in0.0 mm
04:30 PM 71.6°F22.0°C 64.4°F18.0°C 78% 6.0 mph SE9.7 kmh SE 9.2 mph14.8 kmh 30.02 in1016.6 mb 0.00 in0.0 mm 0.00 in0.0 mm 0.00 in0.0 mm
04:45 PM 71.8°F22.1°C 64.6°F18.1°C 78% 7.6 mph ESE12.2 kmh ESE 9.2 mph14.8 kmh 28.79 in974.9 mb 0.00 in0.0 mm 0.00 in0.0 mm 0.00 in0.0 mm
05:00 PM 71.6°F22.0°C 64.8°F18.2°C 79% 6.9 mph SE11.1 kmh SE 12.1 mph19.5 kmh 28.80 in975.3 mb 0.00 in0.0 mm 0.00 in0.0 mm 0.00 in0.0 mm
05:15 PM 67.6°F19.8°C 62.0°F16.7°C 82% 13.0 mph ESE20.9 kmh ESE 19.0 mph30.6 kmh 28.80 in975.3 mb 0.00 in0.0 mm 0.00 in0.0 mm 0.00 in0.0 mm
05:30 PM 65.1°F18.4°C 61.5°F16.4°C 88% 6.0 mph SE9.7 kmh SE 17.4 mph28.0 kmh 30.03 in1016.9 mb 0.00 in0.0 mm 0.00 in0.0 mm 0.00 in0.0 mm
05:45 PM 64.2°F17.9°C 60.9°F16.1°C 89% 7.6 mph E12.2 kmh E 13.0 mph20.9 kmh 30.03 in1016.9 mb 0.00 in0.0 mm 0.00 in0.0 mm 0.00 in0.0 mm
06:00 PM 64.0°F17.8°C 61.1°F16.2°C 90% 6.0 mph E9.7 kmh E 9.2 mph14.8 kmh 30.05 in1017.6 mb 0.00 in0.0 mm 0.00 in0.0 mm 0.00 in0.0 mm
06:15 PM 63.3°F17.4°C 60.4°F15.8°C 90% 6.9 mph ENE11.1 kmh ENE 14.5 mph23.3 kmh 28.82 in976.0 mb 0.00 in0.0 mm 0.00 in0.0 mm 0.00 in0.0 mm
06:30 PM 62.8°F17.1°C 59.8°F15.4°C 90% 4.5 mph ENE7.2 kmh ENE 13.0 mph20.9 kmh 30.06 in1017.9 mb 0.00 in0.0 mm 0.00 in0.0 mm 0.00 in0.0 mm
06:45 PM 62.6°F17.0°C 60.0°F15.6°C 91% 6.9 mph ENE11.1 kmh ENE 11.4 mph18.3 kmh 28.84 in976.6 mb 0.00 in0.0 mm 0.00 in0.0 mm 0.00 in0.0 mm
07:00 PM 62.6°F17.0°C 60.0°F15.6°C 91% 4.5 mph E7.2 kmh E 9.2 mph14.8 kmh 28.84 in976.6 mb 0.00 in0.0 mm 0.00 in0.0 mm 0.00 in0.0 mm
07:15 PM 62.2°F16.8°C 59.9°F15.5°C 92% 4.5 mph SW7.2 kmh SW 9.8 mph15.8 kmh 28.85 in977.0 mb 0.00 in0.0 mm 0.00 in0.0 mm 0.00 in0.0 mm
07:30 PM 62.4°F16.9°C 60.1°F15.6°C 92% 1.6 mph E2.6 kmh E 9.8 mph15.8 kmh 30.08 in1018.6 mb 0.00 in0.0 mm 0.00 in0.0 mm 0.00 in0.0 mm
07:45 PM 62.4°F16.9°C 59.8°F15.4°C 91% 3.8 mph ENE6.1 kmh ENE 10.7 mph17.2 kmh 30.08 in1018.6 mb 0.00 in0.0 mm 0.00 in0.0 mm 0.00 in0.0 mm
08:00 PM 62.1°F16.7°C 59.4°F15.2°C 91% 6.0 mph E9.7 kmh E 9.2 mph14.8 kmh 28.86 in977.3 mb 0.00 in0.0 mm 0.00 in0.0 mm 0.00 in0.0 mm
08:15 PM 61.7°F16.5°C 59.1°F15.1°C 91% 6.0 mph E9.7 kmh E 10.7 mph17.2 kmh 30.09 in1019.0 mb 0.00 in0.0 mm 0.00 in0.0 mm 0.00 in0.0 mm
08:30 PM 61.5°F16.4°C 58.9°F14.9°C 91% 3.8 mph E6.1 kmh E 13.0 mph20.9 kmh 28.87 in977.7 mb 0.00 in0.0 mm 0.00 in0.0 mm 0.00 in0.0 mm
08:45 PM 61.3°F16.3°C 58.7°F14.8°C 91% 5.4 mph NE8.7 kmh NE 9.2 mph14.8 kmh 30.10 in1019.3 mb 0.00 in0.0 mm 0.00 in0.0 mm 0.00 in0.0 mm
09:00 PM 61.3°F16.3°C 58.4°F14.7°C 90% 1.6 mph NE2.6 kmh NE 8.3 mph13.4 kmh 28.88 in978.0 mb 0.00 in0.0 mm 0.00 in0.0 mm 0.00 in0.0 mm
09:15 PM 61.3°F16.3°C 58.4°F14.7°C 90% 3.1 mph NE5.0 kmh NE 10.7 mph17.2 kmh 30.11 in1019.6 mb 0.00 in0.0 mm 0.00 in0.0 mm 0.00 in0.0 mm
09:30 PM 61.5°F16.4°C 58.6°F14.8°C 90% 0.7 mph E1.1 kmh E 6.9 mph11.1 kmh 28.88 in978.0 mb 0.00 in0.0 mm 0.00 in0.0 mm 0.00 in0.0 mm
09:45 PM 61.5°F16.4°C 58.3°F14.6°C 89% 3.1 mph NE5.0 kmh NE 5.4 mph8.7 kmh 30.11 in1019.6 mb 0.00 in0.0 mm 0.00 in0.0 mm 0.00 in0.0 mm
10:00 PM 62.1°F16.7°C 58.8°F14.9°C 89% 2.2 mph NNE3.5 kmh NNE 6.0 mph9.7 kmh 30.10 in1019.3 mb 0.00 in0.0 mm 0.00 in0.0 mm 0.00 in0.0 mm
10:15 PM 62.2°F16.8°C 58.3°F14.6°C 87% 1.6 mph NE2.6 kmh NE 6.0 mph9.7 kmh 30.11 in1019.6 mb 0.00 in0.0 mm 0.00 in0.0 mm 0.00 in0.0 mm
10:30 PM 62.6°F17.0°C 58.0°F14.4°C 85% 1.6 mph NE2.6 kmh NE 4.5 mph7.2 kmh 30.11 in1019.6 mb 0.00 in0.0 mm 0.00 in0.0 mm 0.00 in0.0 mm
10:45 PM 62.8°F17.1°C 57.9°F14.4°C 84% Calm Calm 3.1 mph5.0 kmh 28.88 in978.0 mb 0.00 in0.0 mm 0.00 in0.0 mm 0.00 in0.0 mm
11:00 PM 62.8°F17.1°C 57.6°F14.2°C 83% 0.7 mph NE1.1 kmh NE 3.1 mph5.0 kmh 28.89 in978.3 mb 0.00 in0.0 mm 0.00 in0.0 mm 0.00 in0.0 mm
11:15 PM 63.0°F17.2°C 57.7°F14.3°C 83% 0.7 mph NNE1.1 kmh NNE 1.6 mph2.6 kmh 30.11 in1019.6 mb 0.00 in0.0 mm 0.00 in0.0 mm 0.00 in0.0 mm
11:30 PM 63.0°F17.2°C 57.4°F14.1°C 82% 0.7 mph SE1.1 kmh SE 3.1 mph5.0 kmh 30.11 in1019.6 mb 0.00 in0.0 mm 0.00 in0.0 mm 0.00 in0.0 mm
11:45 PM 63.1°F17.3°C 57.2°F14.0°C 81% Calm Calm 1.6 mph2.6 kmh 30.12 in1020.0 mb 0.00 in0.0 mm 0.00 in0.0 mm 0.00 in0.0 mm